Time;durP1;ratioP1;P1;durP2;ratioP2;P2;SDS_P1;SDS_P2;PMS_P1;PMS_P2;Temp;Humidity;BMP_temperature;BMP_pressure;BME280_temperature;BME280_humidity;BME280_pressure;Samples;Min_cycle;Max_cycle;Signal;HPM_P1;HPM_P2
2021/11/11 10:25:03;;;;;;;39.85;25.52;;;;;;;7.52;100.00;99520.15;2347692;76;22649;-86
2021/11/11 10:28:04;;;;;;;40.55;25.05;;;;;;;7.55;100.00;99524.25;2315462;77;21487;-87
2021/11/11 10:31:05;;;;;;;35.38;24.20;;;;;;;7.65;100.00;99521.95;2315584;77;21498;-86
2021/11/11 10:34:06;;;;;;;34.05;22.25;;;;;;;7.79;100.00;99519.88;2315698;77;20973;-83
2021/11/11 10:37:07;;;;;;;30.25;21.42;;;;;;;7.91;100.00;99509.12;2315445;77;21035;-82
2021/11/11 10:40:08;;;;;;;30.35;22.32;;;;;;;8.06;100.00;99501.66;2284607;77;21035;-85
2021/11/11 10:43:09;;;;;;;32.13;22.35;;;;;;;8.23;100.00;99503.50;2315461;77;20988;-86
2021/11/11 10:46:10;;;;;;;32.13;22.15;;;;;;;8.40;100.00;99499.30;2315993;77;20944;-85
2021/11/11 10:49:11;;;;;;;32.70;22.00;;;;;;;8.54;100.00;99499.30;2316111;77;21011;-84
2021/11/11 10:52:12;;;;;;;28.50;21.05;;;;;;;8.67;100.00;99495.83;2315716;77;21021;-81
2021/11/11 10:55:12;;;;;;;25.92;20.00;;;;;;;8.76;100.00;99485.80;2315619;77;21012;-85
2021/11/11 10:58:13;;;;;;;30.77;21.05;;;;;;;8.88;100.00;99485.59;2315562;77;20953;-86
2021/11/11 11:01:14;;;;;;;30.10;21.17;;;;;;;8.99;100.00;99482.27;2315510;77;21031;-84
2021/11/11 11:04:15;;;;;;;31.25;21.65;;;;;;;9.07;100.00;99475.80;2315344;77;21068;-87
2021/11/11 11:07:16;;;;;;;32.42;21.10;;;;;;;9.16;100.00;99484.52;2315590;77;21035;-85
2021/11/11 11:10:17;;;;;;;29.98;20.68;;;;;;;9.23;100.00;99482.92;2315477;77;20996;-85
2021/11/11 11:13:18;;;;;;;25.55;18.57;;;;;;;9.30;100.00;99492.29;2315759;77;21048;-83
2021/11/11 11:16:19;;;;;;;28.52;20.85;;;;;;;9.35;100.00;99490.87;2315808;77;20909;-85
2021/11/11 11:19:22;;;;;;;27.05;19.80;;;;;;;9.38;100.00;99484.02;2315859;77;20992;-84
2021/11/11 11:22:24;;;;;;;28.75;20.77;;;;;;;9.45;100.00;99486.85;2314298;77;21166;-84
2021/11/11 11:25:25;;;;;;;31.20;19.87;;;;;;;9.52;100.00;99487.06;2302035;77;21050;-85
2021/11/11 11:28:26;;;;;;;31.95;21.65;;;;;;;9.57;100.00;99480.38;2302112;77;21033;-84
2021/11/11 11:31:27;;;;;;;27.42;20.85;;;;;;;9.67;100.00;99480.27;2302151;77;21540;-84
2021/11/11 11:34:28;;;;;;;30.20;20.43;;;;;;;9.72;100.00;99471.48;2301700;77;21549;-84
2021/11/11 11:37:29;;;;;;;21.70;17.62;;;;;;;9.76;100.00;99461.52;2301277;77;20943;-83
2021/11/11 11:40:30;;;;;;;25.70;19.65;;;;;;;9.81;100.00;99455.35;2301373;77;20954;-85
2021/11/11 11:43:30;;;;;;;26.65;20.30;;;;;;;9.89;100.00;99462.75;2301374;77;21561;-84
2021/11/11 11:46:31;;;;;;;23.55;18.27;;;;;;;9.97;100.00;99464.09;2301233;77;20935;-84
2021/11/11 11:49:33;;;;;;;22.05;16.95;;;;;;;10.05;100.00;99458.54;2301406;77;20959;-85
2021/11/11 11:52:35;;;;;;;28.25;18.77;;;;;;;10.12;100.00;99460.37;2301386;77;21110;-83
2021/11/11 11:55:50;;;;;;;24.12;15.88;;;;;;;10.19;100.00;99465.31;2301317;77;20979;-83
2021/11/11 11:58:54;;;;;;;20.62;15.10;;;;;;;10.22;100.00;99466.32;2299070;77;21516;-84
2021/11/11 12:14:56;;;;;;;12.75;10.78;;;;;;;10.53;100.00;99453.48;2301043;77;21489;-87
2021/11/11 12:18:07;;;;;;;15.15;12.82;;;;;;;10.53;100.00;99453.48;2300941;77;20962;-87
2021/11/11 12:40:46;;;;;;;12.07;10.82;;;;;;;10.87;100.00;99456.95;2283346;78;21321;-84
2021/11/11 12:43:47;;;;;;;14.53;11.00;;;;;;;10.90;100.00;99454.02;2282854;78;21035;-85
2021/11/11 12:46:48;;;;;;;13.00;10.38;;;;;;;10.91;100.00;99454.34;2283277;78;21510;-85
2021/11/11 12:49:49;;;;;;;14.13;11.40;;;;;;;10.93;100.00;99454.99;2283347;78;20993;-84
2021/11/11 12:52:50;;;;;;;14.63;11.50;;;;;;;10.92;100.00;99457.28;2283381;78;20992;-84
2021/11/11 12:55:51;;;;;;;14.38;11.38;;;;;;;10.93;100.00;99454.99;2283343;78;20976;-85
2021/11/11 12:58:53;;;;;;;12.55;11.05;;;;;;;10.91;100.00;99456.47;2283329;77;22106;-84
2021/11/11 13:01:54;;;;;;;12.47;10.58;;;;;;;10.89;100.00;99462.87;2283068;78;21043;-80
2021/11/11 13:05:00;;;;;;;12.23;10.68;;;;;;;10.88;100.00;99459.42;2283469;77;21479;-83
2021/11/11 13:07:58;;;;;;;10.95;9.38;;;;;;;10.89;100.00;99456.31;2281104;76;21052;-86
2021/11/11 13:10:59;;;;;;;14.53;10.90;;;;;;;10.88;100.00;99449.41;2283310;78;20994;-83
2021/11/11 13:14:00;;;;;;;11.65;9.80;;;;;;;10.88;100.00;99447.64;2283341;78;21412;-85
2021/11/11 13:17:01;;;;;;;12.70;10.65;;;;;;;10.87;100.00;99450.39;2284195;77;21079;-85
2021/11/11 13:20:06;;;;;;;13.58;11.38;;;;;;;10.85;100.00;99451.06;2283395;78;21595;-81
2021/11/11 13:23:10;;;;;;;11.85;10.50;;;;;;;10.80;100.00;99456.80;2288707;77;20992;-84
2021/11/11 13:26:35;;;;;;;13.30;11.00;;;;;;;10.75;100.00;99456.45;2315287;77;21000;-86
2021/11/11 13:59:40;;;;;;;18.20;14.38;;;;;;;10.38;100.00;99428.91;2314589;77;21001;-86
2021/11/11 16:21:01;;;;;;;50.95;30.88;;;;;;;6.69;100.00;99456.97;2317881;77;21056;-84
2021/11/11 16:26:59;;;;;;;45.58;29.85;;;;;;;6.51;100.00;99467.22;2314642;77;20969;-87
2021/11/11 16:30:00;;;;;;;58.48;35.35;;;;;;;6.44;100.00;99470.83;2314756;77;21007;-86
2021/11/11 16:33:04;;;;;;;54.63;33.23;;;;;;;6.39;100.00;99470.88;2314460;77;21009;-84
2021/11/11 16:36:06;;;;;;;56.48;32.53;;;;;;;6.35;100.00;99472.12;2314665;77;21060;-84
2021/11/11 16:39:10;;;;;;;59.03;34.43;;;;;;;6.31;100.00;99478.52;2313507;77;21045;-85
2021/11/11 16:42:13;;;;;;;53.25;30.97;;;;;;;6.21;100.00;99480.63;2314402;77;21044;-86
2021/11/11 16:45:19;;;;;;;45.78;27.05;;;;;;;6.11;100.00;99479.78;2314313;77;21059;-87
2021/11/11 16:48:20;;;;;;;48.42;29.85;;;;;;;6.03;100.00;99479.61;2314316;77;21495;-86
2021/11/11 16:51:21;;;;;;;42.43;25.02;;;;;;;5.99;100.00;99471.27;2313957;77;21008;-84
2021/11/11 16:54:25;;;;;;;35.30;23.50;;;;;;;5.97;100.00;99469.28;2313970;77;21043;-84
2021/11/11 16:57:25;;;;;;;34.58;22.15;;;;;;;5.96;100.00;99471.55;2300791;77;20976;-84
2021/11/11 17:00:25;;;;;;;33.55;22.42;;;;;;;5.97;100.00;99483.58;2277343;77;20980;-84
2021/11/11 17:03:27;;;;;;;34.53;23.00;;;;;;;6.00;100.00;99485.09;2280679;77;21111;-84
2021/11/11 17:06:28;;;;;;;36.70;24.90;;;;;;;6.02;100.00;99482.35;2289118;75;20965;-86
2021/11/11 17:09:29;;;;;;;34.23;21.90;;;;;;;6.01;100.00;99476.81;2318437;76;21058;-83
2021/11/11 17:12:31;;;;;;;39.63;23.27;;;;;;;5.99;100.00;99476.95;2297770;77;22255;-84
2021/11/11 17:15:34;;;;;;;38.08;24.05;;;;;;;6.02;100.00;99475.85;2287644;77;21467;-84
2021/11/11 17:18:34;;;;;;;43.13;26.25;;;;;;;5.97;100.00;99483.58;2294105;77;21530;-81
2021/11/11 17:21:39;;;;;;;40.48;25.72;;;;;;;5.97;100.00;99483.58;2274907;77;21047;-84
2021/11/11 17:24:39;;;;;;;38.38;25.08;;;;;;;5.95;100.00;99485.98;2297271;77;21106;-86
2021/11/11 17:27:55;;;;;;;41.68;23.73;;;;;;;5.92;100.00;99487.03;2290153;77;20944;-85
2021/11/11 17:30:49;;;;;;;;;;;;;;;5.90;100.00;99488.95;2317275;75;21018;-86
2021/11/11 17:33:49;;;;;;;34.80;24.60;;;;;;;5.89;100.00;99486.45;2323211;76;20372;-86
2021/11/11 17:36:53;;;;;;;36.88;24.60;;;;;;;5.90;100.00;99485.50;2347772;75;21048;-84
2021/11/11 17:39:54;;;;;;;39.27;26.15;;;;;;;5.89;100.00;99488.58;2318412;76;20996;-83
2021/11/11 17:42:55;;;;;;;38.38;25.62;;;;;;;5.86;100.00;99484.95;2319446;76;20992;-85
2021/11/11 17:48:58;;;;;;;40.30;27.27;;;;;;;5.77;100.00;99481.84;2299369;77;20945;-85
2021/11/11 17:52:18;;;;;;;38.83;25.23;;;;;;;5.77;100.00;99484.91;2329168;76;20914;-86
2021/11/11 17:55:20;;;;;;;45.17;27.20;;;;;;;5.74;100.00;99485.97;2327425;76;21064;-87
2021/11/11 17:58:22;;;;;;;37.45;25.95;;;;;;;5.73;100.00;99491.30;2319552;76;20990;-86
2021/11/11 18:01:22;;;;;;;41.98;26.45;;;;;;;5.69;100.00;99490.27;2310265;76;20988;-82
2021/11/11 18:04:23;;;;;;;45.98;28.12;;;;;;;5.65;100.00;99494.06;2303225;76;21080;-84
2021/11/11 18:07:28;;;;;;;44.70;29.23;;;;;;;5.62;100.00;99491.73;2322591;76;20968;-83
2021/11/11 18:10:31;;;;;;;45.73;28.17;;;;;;;5.64;100.00;99491.59;2334170;76;21032;-85
2021/11/11 18:13:31;;;;;;;45.17;27.55;;;;;;;5.63;100.00;99498.58;2305525;76;21017;-86
2021/11/11 18:16:35;;;;;;;42.95;27.82;;;;;;;5.61;100.00;99491.88;2306595;76;20965;-87
2021/11/11 18:19:34;;;;;;;45.98;29.87;;;;;;;5.55;100.00;99491.89;2320905;76;21033;-87
2021/11/11 18:22:35;;;;;;;52.35;32.83;;;;;;;5.48;100.00;99486.03;2331622;76;20973;-87
2021/11/11 18:25:36;;;;;;;56.65;36.15;;;;;;;5.45;100.00;99485.83;2298876;77;21084;-85
2021/11/11 18:28:49;;;;;;;44.08;28.30;;;;;;;5.44;100.00;99481.59;2324474;76;21019;-86
2021/11/11 18:31:46;;;;;;;47.05;28.75;;;;;;;5.43;100.00;99487.26;2308638;76;21052;-85
2021/11/11 18:34:50;;;;;;;51.02;29.60;;;;;;;5.43;100.00;99483.36;2293857;77;21025;-85
2021/11/11 18:37:48;;;;;;;50.60;29.02;;;;;;;5.41;100.00;99487.87;2290570;76;21468;-84
2021/11/11 18:40:50;;;;;;;51.88;30.55;;;;;;;5.40;100.00;99477.61;2330258;76;21019;-84
2021/11/11 18:43:51;;;;;;;48.98;29.67;;;;;;;5.37;100.00;99473.47;2290529;77;21047;-84
2021/11/11 18:47:01;;;;;;;55.08;31.73;;;;;;;5.36;100.00;99482.70;2312214;76;20964;-85
2021/11/11 18:50:03;;;;;;;;;;;;;;;5.34;100.00;99468.55;2315228;76;21048;-85
2021/11/11 18:53:03;;;;;;;68.55;33.38;;;;;;;5.32;100.00;99473.53;2309349;76;20136;-84
2021/11/11 18:56:05;;;;;;;78.40;37.20;;;;;;;5.32;100.00;99479.55;2296457;76;20930;-84
2021/11/11 18:59:06;;;;;;;86.12;37.95;;;;;;;5.29;100.00;99485.45;2316621;76;20937;-86
2021/11/11 19:02:06;;;;;;;267.87;129.45;;;;;;;5.27;100.00;99481.69;2319254;76;20996;-84
2021/11/11 19:05:17;;;;;;;194.95;121.67;;;;;;;5.28;100.00;99483.33;2326196;76;21014;-86
2021/11/11 19:08:26;;;;;;;108.00;64.90;;;;;;;5.28;100.00;99486.41;2331543;76;21095;-84
2021/11/11 19:11:30;;;;;;;;;;;;;;;5.25;100.00;99482.77;2331097;76;20939;-86
2021/11/11 19:14:33;;;;;;;67.72;34.25;;;;;;;5.21;100.00;99482.66;2319224;76;20140;-85
2021/11/11 19:17:44;;;;;;;64.03;34.45;;;;;;;5.13;100.00;99480.72;2320857;76;21052;-85
2021/11/11 19:20:38;;;;;;;53.87;31.40;;;;;;;5.05;100.00;99483.12;2285137;78;21065;-83
2021/11/11 19:23:39;;;;;;;57.67;31.82;;;;;;;4.99;100.00;99484.91;2286594;78;20968;-85
2021/11/11 19:26:40;;;;;;;50.50;31.60;;;;;;;4.97;100.00;99486.81;2308880;76;21075;-84
2021/11/11 19:29:41;;;;;;;48.28;29.23;;;;;;;4.91;100.00;99485.52;2304193;76;20991;-84
2021/11/11 19:32:43;;;;;;;48.15;31.05;;;;;;;4.88;100.00;99478.00;2283271;77;21014;-84
2021/11/11 19:35:51;;;;;;;51.20;31.30;;;;;;;4.84;100.00;99474.81;2330826;76;20982;-82
2021/11/11 19:39:11;;;;;;;50.28;29.20;;;;;;;4.82;100.00;99481.91;2295627;77;20968;-83
2021/11/11 19:42:11;;;;;;;58.95;31.85;;;;;;;4.83;100.00;99481.42;2287568;78;21064;-84
2021/11/11 20:04:34;;;;;;;54.23;32.83;;;;;;;4.86;100.00;99478.61;2159169;82;21542;-84
2021/11/11 20:20:47;;;;;;;56.28;32.78;;;;;;;4.62;100.00;99474.91;2149756;82;21550;-80
2021/11/11 20:46:33;;;;;;;66.42;37.38;;;;;;;4.46;100.00;99490.86;2192354;80;21053;-81
2021/11/11 20:49:33;;;;;;;65.37;36.55;;;;;;;4.44;100.00;99489.34;2196502;80;21128;-82
2021/11/11 20:59:00;;;;;;;58.83;35.63;;;;;;;4.36;100.00;99487.35;2194264;80;21608;-83
2021/11/11 21:02:03;;;;;;;56.37;33.95;;;;;;;4.37;100.00;99483.81;2294569;76;22110;-85
2021/11/11 21:05:17;;;;;;;58.05;33.60;;;;;;;4.36;100.00;99488.65;2256529;78;21051;-85
2021/11/11 21:08:36;;;;;;;61.58;33.60;;;;;;;4.36;100.00;99486.05;2327899;76;21099;-81
2021/11/11 21:11:47;;;;;;;63.95;36.63;;;;;;;4.37;100.00;99482.52;2291519;77;20985;-82
2021/11/11 21:14:58;;;;;;;61.08;35.78;;;;;;;4.34;100.00;99485.36;2288717;78;21039;-82
2021/11/11 21:20:56;;;;;;;57.67;34.18;;;;;;;4.31;100.00;99489.97;2329373;76;20977;-85
2021/11/11 21:23:56;;;;;;;58.78;34.70;;;;;;;4.28;100.00;99494.91;2336208;75;21038;-85
2021/11/11 21:26:57;;;;;;;57.53;34.78;;;;;;;4.26;100.00;99493.73;2326393;76;21020;-81
2021/11/11 21:29:58;;;;;;;61.50;35.25;;;;;;;4.25;100.00;99492.56;2329733;76;20941;-85
2021/11/11 21:33:00;;;;;;;60.33;34.43;;;;;;;4.22;100.00;99488.92;2322107;76;20942;-83
2021/11/11 21:36:23;;;;;;;59.48;34.30;;;;;;;4.21;100.00;99485.52;2318771;76;20999;-84
2021/11/11 21:39:29;;;;;;;59.83;35.05;;;;;;;4.18;100.00;99491.39;2315477;76;21065;-84
2021/11/11 21:42:28;;;;;;;57.17;34.43;;;;;;;4.17;100.00;99490.56;2314042;76;21480;-87
2021/11/11 21:45:30;;;;;;;55.33;31.82;;;;;;;4.13;100.00;99492.23;2320680;76;21436;-83
2021/11/11 21:48:31;;;;;;;60.88;35.83;;;;;;;4.08;100.00;99491.28;2329394;76;21532;-83
2021/11/11 21:51:32;;;;;;;62.60;35.00;;;;;;;4.02;100.00;99488.33;2327449;76;20953;-84
2021/11/11 21:54:40;;;;;;;55.23;32.60;;;;;;;3.95;100.00;99490.13;2318602;76;21563;-83
2021/11/11 22:00:43;;;;;;;61.08;34.27;;;;;;;3.87;100.00;99482.12;2329605;76;20930;-84
2021/11/11 22:20:13;;;;;;;63.87;36.00;;;;;;;3.81;100.00;99488.23;2329591;76;21061;-83
2021/11/11 22:23:20;;;;;;;63.00;33.90;;;;;;;3.78;100.00;99483.30;2321653;76;21523;-83
2021/11/11 22:32:24;;;;;;;58.35;34.88;;;;;;;3.66;100.00;99496.72;2331762;76;20941;-81
2021/11/11 22:35:23;;;;;;;74.85;44.45;;;;;;;3.66;100.00;99489.77;2327522;76;21037;-81
2021/11/11 22:38:23;;;;;;;94.22;55.33;;;;;;;3.65;100.00;99489.39;2319031;76;20957;-80
2021/11/11 22:41:29;;;;;;;82.88;47.00;;;;;;;3.59;100.00;99489.87;2322541;76;20984;-81
2021/11/11 22:44:27;;;;;;;81.95;44.23;;;;;;;3.58;100.00;99492.12;2330448;76;21064;-82
2021/11/11 22:47:28;;;;;;;85.53;43.17;;;;;;;3.56;100.00;99493.16;2328827;76;20925;-83
2021/11/11 22:50:30;;;;;;;93.58;45.23;;;;;;;3.56;100.00;99492.68;2289676;76;20976;-81
2021/11/11 22:53:40;;;;;;;84.52;42.98;;;;;;;3.54;100.00;99488.09;2323530;76;21489;-83
2021/11/11 22:56:41;;;;;;;86.50;41.95;;;;;;;3.53;100.00;99485.16;2307295;76;21512;-83
2021/11/11 22:59:56;;;;;;;77.53;40.65;;;;;;;3.51;100.00;99484.45;2317765;76;21016;-82
2021/11/11 23:02:59;;;;;;;74.32;41.10;;;;;;;3.49;100.00;99486.34;2283089;77;20996;-81
2021/11/11 23:19:14;;;;;;;61.80;35.40;;;;;;;3.21;100.00;99488.05;2118034;82;21467;-82
2021/11/11 23:25:31;;;;;;;61.35;36.63;;;;;;;3.08;100.00;99478.59;2139135;82;21123;-83
2021/11/11 23:32:04;;;;;;;59.08;33.85;;;;;;;2.96;100.00;99482.56;2149445;82;21502;-82
2021/11/11 23:34:56;;;;;;;58.63;32.88;;;;;;;2.94;100.00;99479.27;2139076;82;21581;-83
2021/11/11 23:37:58;;;;;;;68.28;36.60;;;;;;;2.90;100.00;99480.41;2135390;82;21092;-83
2021/11/11 23:40:58;;;;;;;66.85;36.83;;;;;;;2.90;100.00;99472.18;2145615;82;21169;-83
2021/11/11 23:44:01;;;;;;;60.25;34.78;;;;;;;2.91;100.00;99467.83;2238975;77;21015;-83
2021/11/11 23:47:02;;;;;;;64.22;36.88;;;;;;;2.89;100.00;99472.30;2294422;77;20941;-84
2021/11/11 23:50:17;;;;;;;64.55;35.75;;;;;;;2.87;100.00;99469.01;2296507;76;20921;-83
